createdAt,value
2023-01-28T00:00:32.031Z,7.20
2023-01-28T00:02:58.380Z,6.82
2023-01-28T00:05:25.123Z,7.57
2023-01-28T00:07:52.266Z,6.72
2023-01-28T00:10:18.923Z,9.35
2023-01-28T00:12:45.247Z,9.07
2023-01-28T00:15:12.049Z,12.23
2023-01-28T00:17:38.560Z,10.05
2023-01-28T00:20:05.590Z,9.98
2023-01-28T00:22:32.616Z,10.45
2023-01-28T00:24:59.199Z,8.52
2023-01-28T00:27:25.503Z,10.10
2023-01-28T00:29:51.817Z,7.78
2023-01-28T00:32:18.111Z,7.00
2023-01-28T00:34:44.399Z,8.75
2023-01-28T00:37:10.797Z,8.50
2023-01-28T00:39:37.140Z,6.90
2023-01-28T00:42:03.747Z,6.38
2023-01-28T00:44:30.064Z,8.05
2023-01-28T00:46:56.495Z,7.47
2023-01-28T00:49:22.802Z,6.63
2023-01-28T00:51:49.268Z,7.00
2023-01-28T00:54:16.006Z,7.75
2023-01-28T00:56:42.355Z,5.65
2023-01-28T00:59:09.514Z,5.50
2023-01-28T01:01:35.974Z,6.10
2023-01-28T01:04:02.756Z,5.88
2023-01-28T01:06:33.108Z,5.72
2023-01-28T01:08:59.609Z,5.97
2023-01-28T01:11:26.120Z,5.60
2023-01-28T01:13:55.387Z,5.97
2023-01-28T01:16:28.327Z,5.60
2023-01-28T01:18:56.068Z,6.13
2023-01-28T01:21:25.291Z,6.07
2023-01-28T01:23:52.418Z,5.50
2023-01-28T01:26:18.799Z,6.32
2023-01-28T01:28:45.761Z,6.90
2023-01-28T01:31:15.859Z,7.18
2023-01-28T01:33:42.975Z,5.45
2023-01-28T01:36:11.272Z,5.82
2023-01-28T01:38:37.875Z,6.70
2023-01-28T01:41:05.722Z,6.03
2023-01-28T01:43:54.477Z,6.15
2023-01-28T01:46:43.711Z,6.45
2023-01-28T01:49:21.798Z,5.95
2023-01-28T01:52:10.387Z,5.38
2023-01-28T01:54:39.292Z,5.25
2023-01-28T01:57:09.904Z,5.05
2023-01-28T01:59:37.757Z,5.70
2023-01-28T02:02:07.388Z,6.30
2023-01-28T02:04:38.793Z,5.63
2023-01-28T02:07:08.863Z,5.50
2023-01-28T02:09:36.550Z,4.95
2023-01-28T02:12:15.807Z,4.90
2023-01-28T02:14:47.658Z,4.88
2023-01-28T02:17:15.254Z,4.55
2023-01-28T02:19:57.698Z,4.95
2023-01-28T02:22:29.992Z,4.30
2023-01-28T02:25:02.878Z,4.50
2023-01-28T02:27:37.708Z,4.22
2023-01-28T02:30:23.586Z,3.65
2023-01-28T02:32:57.385Z,3.60
2023-01-28T02:36:02.151Z,3.72
2023-01-28T02:38:34.866Z,3.90
2023-01-28T02:41:06.850Z,3.00
2023-01-28T02:43:41.998Z,3.22
2023-01-28T02:46:45.446Z,3.30
2023-01-28T02:49:34.142Z,3.42
2023-01-28T02:52:41.971Z,3.03
2023-01-28T02:55:27.623Z,2.75
2023-01-28T02:58:06.429Z,3.38
2023-01-28T03:00:50.894Z,3.35
2023-01-28T03:03:27.654Z,3.17
2023-01-28T03:06:04.179Z,3.05
2023-01-28T03:09:07.677Z,3.00
2023-01-28T03:11:57.307Z,2.85
2023-01-28T03:14:43.553Z,2.53
2023-01-28T03:17:37.216Z,2.67
2023-01-28T03:20:23.383Z,2.83
2023-01-28T03:23:14.199Z,3.00
2023-01-28T03:26:04.687Z,2.97
2023-01-28T03:28:52.410Z,3.10
2023-01-28T03:31:39.523Z,3.20
2023-01-28T03:34:26.350Z,3.83
2023-01-28T03:36:53.617Z,3.80
2023-01-28T03:39:39.688Z,3.40
2023-01-28T03:42:14.668Z,3.63
2023-01-28T03:45:14.778Z,3.40
2023-01-28T03:47:41.474Z,3.30
2023-01-28T03:50:10.758Z,3.08
2023-01-28T03:52:54.227Z,3.72
2023-01-28T03:55:43.749Z,3.40
2023-01-28T03:58:12.120Z,3.42
2023-01-28T04:00:41.923Z,3.90
2023-01-28T04:06:05.588Z,3.53
2023-01-28T04:08:53.372Z,3.92
2023-01-28T04:11:57.947Z,3.80
2023-01-28T04:14:30.512Z,3.92
2023-01-28T04:17:04.146Z,4.30
2023-01-28T04:19:31.615Z,4.20
2023-01-28T04:21:59.094Z,4.50
2023-01-28T04:24:25.718Z,3.83
2023-01-28T04:26:52.088Z,4.22
2023-01-28T04:29:18.816Z,4.05
2023-01-28T04:31:45.366Z,3.95
2023-01-28T04:34:20.284Z,4.20
2023-01-28T04:39:45.262Z,4.00
2023-01-28T04:42:36.042Z,3.45
2023-01-28T04:45:08.837Z,4.55
2023-01-28T04:47:49.826Z,3.70
2023-01-28T04:50:26.883Z,4.60
2023-01-28T04:53:12.262Z,4.50
2023-01-28T04:55:57.837Z,4.93
2023-01-28T04:58:25.504Z,4.57
2023-01-28T05:00:56.850Z,5.60
2023-01-28T05:03:24.493Z,5.00
2023-01-28T05:05:51.638Z,4.95
2023-01-28T05:08:23.347Z,4.75
2023-01-28T05:10:49.814Z,4.53
2023-01-28T05:13:16.188Z,4.78
2023-01-28T05:15:43.746Z,4.43
2023-01-28T05:18:10.174Z,4.18
2023-01-28T05:20:42.528Z,4.10
2023-01-28T05:23:08.867Z,4.95
2023-01-28T05:25:47.291Z,4.10
2023-01-28T05:28:13.756Z,4.47
2023-01-28T05:30:40.197Z,4.32
2023-01-28T05:33:06.968Z,5.38
2023-01-28T05:35:33.384Z,4.03
2023-01-28T05:37:59.738Z,4.40
2023-01-28T05:40:26.257Z,4.45
2023-01-28T05:42:52.682Z,4.53
2023-01-28T05:45:39.485Z,4.57
2023-01-28T05:48:12.143Z,4.72
2023-01-28T05:51:10.667Z,4.25
2023-01-28T05:53:40.603Z,3.83
2023-01-28T05:56:07.338Z,4.15
2023-01-28T05:58:34.962Z,4.68
2023-01-28T06:01:02.953Z,4.43
2023-01-28T06:03:38.051Z,3.72
2023-01-28T06:06:04.623Z,4.00
2023-01-28T06:08:31.585Z,4.18
2023-01-28T06:10:58.793Z,4.68
2023-01-28T06:13:25.277Z,4.30
2023-01-28T06:16:10.153Z,4.55
2023-01-28T06:18:59.357Z,4.28
2023-01-28T06:21:26.117Z,4.93
2023-01-28T06:23:53.337Z,4.20
2023-01-28T06:26:19.753Z,3.97
2023-01-28T06:28:46.982Z,3.70
2023-01-28T06:31:14.100Z,4.38
2023-01-28T06:33:40.459Z,4.55
2023-01-28T06:36:07.406Z,4.22
2023-01-28T06:38:34.965Z,3.95
2023-01-28T06:41:01.348Z,4.10
2023-01-28T06:43:28.164Z,4.13
2023-01-28T06:45:55.180Z,4.22
2023-01-28T06:48:22.007Z,4.45
2023-01-28T06:50:48.712Z,4.18
2023-01-28T06:53:15.955Z,4.07
2023-01-28T06:55:42.332Z,4.03
2023-01-28T06:58:09.090Z,4.00
2023-01-28T07:00:35.451Z,4.57
2023-01-28T07:03:01.951Z,4.50
2023-01-28T07:05:28.320Z,4.10
2023-01-28T07:07:54.623Z,5.05
2023-01-28T07:10:20.965Z,4.30
2023-01-28T07:12:47.333Z,4.35
2023-01-28T07:15:15.048Z,5.68
2023-01-28T07:17:42.415Z,7.35
2023-01-28T07:20:11.574Z,5.85
2023-01-28T07:22:40.440Z,5.10
2023-01-28T07:25:07.677Z,5.20
2023-01-28T07:27:33.986Z,5.32
2023-01-28T07:30:00.308Z,5.07
2023-01-28T07:32:27.335Z,4.72
2023-01-28T07:34:53.934Z,4.93
2023-01-28T07:37:21.018Z,5.28
2023-01-28T07:39:47.568Z,5.40
2023-01-28T07:42:14.067Z,5.07
2023-01-28T07:44:46.213Z,4.93
2023-01-28T07:47:12.662Z,3.00
2023-01-28T07:49:39.817Z,3.13
2023-01-28T07:52:07.148Z,3.30
2023-01-28T07:54:33.496Z,3.95
2023-01-28T07:56:59.883Z,2.70
2023-01-28T07:59:26.438Z,2.70
2023-01-28T08:01:55.078Z,3.42
2023-01-28T08:04:22.081Z,3.55
2023-01-28T08:06:48.548Z,3.33
2023-01-28T08:09:14.864Z,3.28
2023-01-28T08:11:41.319Z,3.33
2023-01-28T08:14:07.771Z,3.65
2023-01-28T08:16:34.061Z,3.20
2023-01-28T08:19:00.359Z,3.20
2023-01-28T08:21:26.688Z,3.40
2023-01-28T08:23:53.044Z,2.88
2023-01-28T08:26:19.335Z,3.67
2023-01-28T08:28:45.662Z,3.42
2023-01-28T08:31:12.187Z,3.92
2023-01-28T08:33:38.671Z,3.70
2023-01-28T08:36:05.637Z,4.50
2023-01-28T08:38:32.261Z,5.68
2023-01-28T08:40:59.747Z,4.85
2023-01-28T08:43:26.085Z,3.75
2023-01-28T08:45:52.468Z,3.42
2023-01-28T08:48:19.595Z,2.40
2023-01-28T08:50:46.151Z,2.42
2023-01-28T08:53:15.652Z,2.60
2023-01-28T08:55:42.228Z,2.58
2023-01-28T08:58:14.323Z,2.35
2023-01-28T09:00:41.250Z,2.20
2023-01-28T09:03:08.228Z,2.20
2023-01-28T09:05:35.763Z,2.00
2023-01-28T09:08:04.203Z,1.70
2023-01-28T09:10:30.556Z,1.55
2023-01-28T09:12:56.961Z,2.53
2023-01-28T09:15:23.358Z,1.70
2023-01-28T09:17:49.665Z,4.32
2023-01-28T09:20:16.686Z,2.55
2023-01-28T09:22:43.152Z,1.80
2023-01-28T09:25:09.568Z,1.60
2023-01-28T09:27:35.909Z,1.45
2023-01-28T09:30:02.496Z,2.08
2023-01-28T09:32:28.795Z,2.17
2023-01-28T09:34:55.123Z,1.58
2023-01-28T09:37:21.406Z,1.98
2023-01-28T09:39:48.234Z,1.85
2023-01-28T09:42:33.277Z,1.92
2023-01-28T09:45:10.055Z,5.47
2023-01-28T09:47:53.548Z,3.97
2023-01-28T09:50:33.724Z,8.10
2023-01-28T09:53:07.488Z,4.43
2023-01-28T09:55:40.090Z,2.88
2023-01-28T09:58:11.438Z,2.13
2023-01-28T10:01:02.371Z,2.20
2023-01-28T10:03:40.948Z,2.50
2023-01-28T10:06:36.764Z,6.35
2023-01-28T10:09:16.312Z,7.57
2023-01-28T10:12:02.180Z,12.63
2023-01-28T10:14:49.835Z,7.43
2023-01-28T10:17:25.689Z,3.10
2023-01-28T10:19:58.987Z,3.08
2023-01-28T10:22:31.854Z,2.60
2023-01-28T10:25:06.144Z,1.60
2023-01-28T10:27:35.059Z,1.73
2023-01-28T10:30:23.213Z,2.30
2023-01-28T10:33:01.474Z,2.92
2023-01-28T10:35:29.263Z,1.83
2023-01-28T10:38:02.218Z,1.95
2023-01-28T10:40:28.857Z,1.90
2023-01-28T10:42:55.285Z,1.65
2023-01-28T10:45:25.172Z,1.73
2023-01-28T10:48:02.862Z,1.70
2023-01-28T10:50:30.906Z,1.63
2023-01-28T10:53:05.508Z,1.73
2023-01-28T10:55:47.818Z,3.75
2023-01-28T10:58:24.353Z,5.40
2023-01-28T11:00:56.875Z,3.22
2023-01-28T11:03:27.236Z,3.20
2023-01-28T11:05:55.689Z,2.90
2023-01-28T11:08:24.414Z,2.78
2023-01-28T11:10:52.089Z,4.07
2023-01-28T11:13:19.543Z,3.42
2023-01-28T11:15:48.866Z,3.92
2023-01-28T11:18:24.246Z,2.60
2023-01-28T11:20:57.353Z,3.10
2023-01-28T11:23:38.544Z,8.98
2023-01-28T11:26:18.923Z,12.00
2023-01-28T11:28:45.486Z,6.97
2023-01-28T11:31:16.294Z,12.43
2023-01-28T11:33:54.267Z,8.05
2023-01-28T11:36:26.893Z,7.15
2023-01-28T11:39:00.049Z,7.95
2023-01-28T11:41:38.753Z,5.40
2023-01-28T11:44:19.111Z,3.80
2023-01-28T11:47:25.049Z,3.05
2023-01-28T11:50:15.660Z,4.68
2023-01-28T11:53:06.395Z,2.63
2023-01-28T11:58:36.597Z,3.22
2023-01-28T12:01:16.758Z,4.22
2023-01-28T12:04:16.397Z,4.07
2023-01-28T12:07:00.463Z,2.92
2023-01-28T12:09:48.719Z,2.80
2023-01-28T12:12:25.305Z,2.35
2023-01-28T12:15:02.227Z,2.40
2023-01-28T12:17:47.437Z,1.80
2023-01-28T12:20:31.944Z,2.90
2023-01-28T12:23:07.385Z,2.35
2023-01-28T12:25:33.656Z,2.22
2023-01-28T12:28:15.642Z,3.17
2023-01-28T12:30:55.923Z,2.67
2023-01-28T12:33:38.556Z,3.40
2023-01-28T12:36:22.614Z,5.43
2023-01-28T12:39:04.888Z,4.93
2023-01-28T12:41:39.788Z,5.60
2023-01-28T12:44:14.337Z,4.60
2023-01-28T12:46:52.928Z,5.78
2023-01-28T12:49:45.297Z,3.20
2023-01-28T12:52:22.814Z,3.13
2023-01-28T12:55:01.036Z,2.72
2023-01-28T12:57:29.888Z,5.03
2023-01-28T13:00:25.192Z,3.50
2023-01-28T13:03:11.378Z,4.07
2023-01-28T13:05:43.823Z,3.85
2023-01-28T13:08:17.619Z,4.00
2023-01-28T13:10:45.798Z,3.40
2023-01-28T13:13:39.561Z,3.20
2023-01-28T13:16:09.344Z,2.35
2023-01-28T13:18:38.419Z,3.17
2023-01-28T13:21:06.013Z,4.03
2023-01-28T13:23:39.707Z,3.75
2023-01-28T13:26:47.711Z,3.15
2023-01-28T13:29:13.960Z,2.85
2023-01-28T13:31:44.720Z,2.55
2023-01-28T13:34:33.666Z,4.68
2023-01-28T13:37:29.984Z,3.53
2023-01-28T13:40:14.721Z,4.22
2023-01-28T13:42:41.947Z,4.70
2023-01-28T13:45:17.825Z,5.07
2023-01-28T13:47:48.866Z,4.68
2023-01-28T13:50:20.751Z,3.50
2023-01-28T13:53:16.206Z,4.22
2023-01-28T13:55:46.066Z,4.18
2023-01-28T13:58:49.147Z,5.18
2023-01-28T14:01:52.667Z,3.50
2023-01-28T14:04:28.136Z,3.50
2023-01-28T14:07:07.457Z,6.10
2023-01-28T14:09:55.472Z,4.18
2023-01-28T14:12:47.810Z,4.90
2023-01-28T14:15:40.262Z,7.68
2023-01-28T14:18:21.228Z,9.10
2023-01-28T14:20:47.900Z,5.63
2023-01-28T14:23:18.220Z,6.65
2023-01-28T14:25:47.608Z,4.93
2023-01-28T14:28:23.093Z,4.97
2023-01-28T14:31:05.001Z,4.90
2023-01-28T14:33:32.738Z,6.93
2023-01-28T14:35:59.168Z,3.80
2023-01-28T14:38:25.569Z,3.50
2023-01-28T14:40:54.357Z,4.28
2023-01-28T14:43:26.962Z,5.05
2023-01-28T14:46:29.407Z,7.70
2023-01-28T14:49:18.464Z,6.10
2023-01-28T14:52:21.516Z,3.90
2023-01-28T14:54:47.783Z,7.97
2023-01-28T14:57:32.116Z,7.97
2023-01-28T14:59:59.696Z,4.63
2023-01-28T15:02:28.862Z,3.92
2023-01-28T15:05:07.828Z,4.72
2023-01-28T15:07:34.179Z,7.60
2023-01-28T15:10:02.480Z,7.20
2023-01-28T15:12:32.801Z,7.22
2023-01-28T15:15:19.568Z,9.07
2023-01-28T15:17:48.088Z,6.45
2023-01-28T15:20:20.611Z,5.60
2023-01-28T15:22:47.584Z,5.03
2023-01-28T15:25:19.403Z,3.67
2023-01-28T15:27:46.223Z,3.83
2023-01-28T15:30:28.428Z,3.65
2023-01-28T15:33:10.917Z,4.57
2023-01-28T15:35:37.294Z,14.43
2023-01-28T15:38:05.172Z,13.52
2023-01-28T15:40:44.508Z,15.85
2023-01-28T15:43:36.296Z,14.07
2023-01-28T15:46:03.688Z,17.52
2023-01-28T15:48:34.412Z,15.38
2023-01-28T15:51:16.919Z,13.85
2023-01-28T15:53:45.964Z,10.05
2023-01-28T15:56:14.761Z,14.18
2023-01-28T15:58:42.144Z,19.77
2023-01-28T16:01:08.520Z,12.43
2023-01-28T16:03:39.245Z,9.90
2023-01-28T16:06:27.892Z,5.47
2023-01-28T16:08:58.758Z,7.32
2023-01-28T16:11:30.226Z,10.23
2023-01-28T16:13:58.001Z,10.77
2023-01-28T16:16:36.725Z,13.30
2023-01-28T16:19:06.559Z,13.23
2023-01-28T16:21:37.830Z,12.10
2023-01-28T16:26:35.852Z,17.38
2023-01-28T16:29:15.171Z,12.52
2023-01-28T16:31:41.580Z,26.23
2023-01-28T16:34:10.399Z,17.02
2023-01-28T16:36:37.399Z,17.85
2023-01-28T16:39:03.924Z,11.23
2023-01-28T16:41:34.389Z,14.57
2023-01-28T16:44:05.668Z,26.20
2023-01-28T16:46:35.607Z,18.50
2023-01-28T16:49:02.695Z,13.52
2023-01-28T16:51:29.516Z,11.90
2023-01-28T16:53:56.004Z,11.35
2023-01-28T16:56:43.630Z,11.27
2023-01-28T16:59:11.904Z,19.65
2023-01-28T17:01:38.431Z,17.67
2023-01-28T17:04:11.575Z,12.68
2023-01-28T17:06:39.285Z,10.75
2023-01-28T17:09:05.775Z,10.52
2023-01-28T17:11:33.083Z,13.63
2023-01-28T17:13:59.507Z,30.88
2023-01-28T17:16:26.516Z,39.38
2023-01-28T17:18:54.155Z,28.42
2023-01-28T17:21:20.836Z,15.43
2023-01-28T17:23:47.388Z,14.95
2023-01-28T17:26:15.858Z,16.02
2023-01-28T17:28:42.736Z,13.88
2023-01-28T17:31:12.319Z,13.75
2023-01-28T17:33:39.924Z,11.75
2023-01-28T17:36:07.480Z,10.45
2023-01-28T17:38:33.919Z,9.63
2023-01-28T17:41:08.960Z,10.48
2023-01-28T17:43:35.405Z,15.10
2023-01-28T17:46:10.503Z,15.35
2023-01-28T17:48:36.986Z,10.57
2023-01-28T17:51:03.605Z,8.23
2023-01-28T17:53:29.961Z,8.65
2023-01-28T17:55:56.253Z,6.88
2023-01-28T17:58:22.536Z,7.20
2023-01-28T18:00:49.173Z,6.38
2023-01-28T18:03:16.321Z,7.05
2023-01-28T18:05:43.255Z,8.50
2023-01-28T18:08:09.727Z,8.88
2023-01-28T18:10:36.154Z,8.73
2023-01-28T18:13:02.595Z,8.20
2023-01-28T18:15:28.961Z,6.68
2023-01-28T18:17:55.265Z,6.00
2023-01-28T18:20:21.613Z,6.15
2023-01-28T18:22:47.959Z,5.78
2023-01-28T18:25:16.446Z,5.10
2023-01-28T18:27:43.645Z,5.70
2023-01-28T18:30:10.636Z,6.65
2023-01-28T18:32:36.973Z,6.20
2023-01-28T18:35:03.565Z,8.38
2023-01-28T18:37:29.925Z,12.40
2023-01-28T18:39:56.585Z,10.38
2023-01-28T18:42:22.905Z,9.93
2023-01-28T18:44:49.221Z,12.18
2023-01-28T18:47:15.565Z,13.02
2023-01-28T18:49:42.299Z,14.98
2023-01-28T18:52:09.056Z,12.93
2023-01-28T18:54:35.561Z,28.48
2023-01-28T18:57:02.222Z,59.10
2023-01-28T18:59:28.539Z,58.10
2023-01-28T19:01:54.918Z,24.90
2023-01-28T19:04:21.273Z,24.15
2023-01-28T19:06:48.126Z,73.78
2023-01-28T19:09:15.897Z,25.50
2023-01-28T19:11:42.690Z,18.92
2023-01-28T19:14:11.427Z,13.90
2023-01-28T19:16:37.878Z,11.43
2023-01-28T19:19:04.426Z,19.30
2023-01-28T19:21:31.605Z,26.15
2023-01-28T19:24:03.815Z,25.77
2023-01-28T19:26:31.149Z,19.83
2023-01-28T19:28:58.295Z,28.58
2023-01-28T19:31:25.928Z,17.55
2023-01-28T19:33:58.887Z,12.02
2023-01-28T19:36:28.154Z,10.63
2023-01-28T19:39:02.472Z,10.48
2023-01-28T19:41:28.986Z,13.48
2023-01-28T19:43:56.587Z,17.35
2023-01-28T19:46:23.633Z,17.98
2023-01-28T19:48:50.071Z,37.78
2023-01-28T19:51:16.799Z,33.72
2023-01-28T19:53:44.864Z,64.25
2023-01-28T19:56:13.964Z,49.40
2023-01-28T19:58:42.429Z,23.85
2023-01-28T20:01:17.455Z,38.60
2023-01-28T20:03:45.507Z,58.20
2023-01-28T20:06:14.731Z,40.90
2023-01-28T20:08:41.999Z,34.28
2023-01-28T20:11:11.880Z,30.92
2023-01-28T20:13:39.278Z,32.28
2023-01-28T20:16:07.557Z,30.17
2023-01-28T20:18:34.780Z,23.33
2023-01-28T20:21:01.539Z,19.83
2023-01-28T20:23:28.232Z,21.05
2023-01-28T20:25:56.370Z,20.33
2023-01-28T20:28:23.163Z,16.15
2023-01-28T20:30:52.112Z,14.05
2023-01-28T20:33:19.535Z,16.30
2023-01-28T20:35:45.901Z,13.27
2023-01-28T20:38:13.013Z,15.60
2023-01-28T20:40:42.407Z,16.10
2023-01-28T20:43:09.813Z,12.73
2023-01-28T20:45:36.154Z,11.80
2023-01-28T20:48:02.572Z,13.73
2023-01-28T20:50:28.932Z,13.95
2023-01-28T20:52:55.841Z,12.43
2023-01-28T20:55:22.233Z,13.23
2023-01-28T20:57:48.525Z,12.75
2023-01-28T21:00:15.637Z,14.70
2023-01-28T21:02:44.198Z,12.15
2023-01-28T21:05:10.568Z,12.93
2023-01-28T21:07:37.153Z,11.63
2023-01-28T21:10:03.928Z,14.45
2023-01-28T21:12:30.757Z,13.52
2023-01-28T21:14:57.559Z,14.65
2023-01-28T21:17:24.915Z,12.95
2023-01-28T21:19:51.278Z,11.38
2023-01-28T21:22:17.621Z,12.45
2023-01-28T21:24:45.399Z,11.95
2023-01-28T21:27:11.714Z,11.77
2023-01-28T21:29:38.032Z,10.60
2023-01-28T21:32:04.606Z,11.23
2023-01-28T21:34:30.937Z,11.32
2023-01-28T21:36:57.263Z,11.57
2023-01-28T21:39:23.819Z,10.60
2023-01-28T21:41:50.801Z,11.10
2023-01-28T21:44:17.185Z,9.55
2023-01-28T21:46:46.069Z,10.75
2023-01-28T21:49:12.481Z,11.23
2023-01-28T21:51:47.985Z,11.45
2023-01-28T21:54:20.612Z,15.80
2023-01-28T21:56:48.858Z,14.07
2023-01-28T21:59:28.609Z,20.40
2023-01-28T22:02:03.717Z,16.17
2023-01-28T22:04:35.770Z,16.88
2023-01-28T22:07:03.799Z,14.02
2023-01-28T22:09:31.055Z,13.40
2023-01-28T22:11:57.487Z,25.95
2023-01-28T22:14:23.816Z,45.95
2023-01-28T22:16:51.223Z,22.83
2023-01-28T22:19:17.957Z,26.73
2023-01-28T22:21:45.743Z,24.27
2023-01-28T22:24:14.811Z,18.45
2023-01-28T22:26:42.329Z,16.20
2023-01-28T22:29:10.069Z,17.17
2023-01-28T22:31:36.789Z,16.30
2023-01-28T22:34:03.589Z,16.08
2023-01-28T22:36:32.283Z,15.93
2023-01-28T22:38:58.613Z,15.98
2023-01-28T22:41:24.919Z,13.60
2023-01-28T22:43:52.077Z,19.05
2023-01-28T22:46:20.529Z,36.30
2023-01-28T22:48:47.078Z,28.70
2023-01-28T22:51:19.605Z,16.05
2023-01-28T22:53:47.087Z,14.25
2023-01-28T22:56:14.980Z,14.15
2023-01-28T22:58:41.520Z,14.70
2023-01-28T23:01:08.770Z,14.55
2023-01-28T23:03:35.955Z,15.35
2023-01-28T23:06:04.558Z,16.10
2023-01-28T23:08:31.776Z,15.10
2023-01-28T23:11:01.744Z,14.27
2023-01-28T23:13:48.902Z,14.88
2023-01-28T23:16:33.573Z,15.82
2023-01-28T23:19:18.329Z,17.65
2023-01-28T23:22:03.672Z,16.92
2023-01-28T23:24:32.751Z,16.90
2023-01-28T23:27:02.758Z,16.45
2023-01-28T23:29:31.206Z,14.60
2023-01-28T23:32:09.769Z,14.70
2023-01-28T23:34:40.215Z,15.68
2023-01-28T23:37:08.927Z,19.13
2023-01-28T23:39:35.737Z,21.45
2023-01-28T23:42:29.193Z,21.85
2023-01-28T23:44:55.603Z,21.25
2023-01-28T23:47:21.888Z,20.30
2023-01-28T23:49:48.190Z,25.15
2023-01-28T23:52:14.537Z,31.05
2023-01-28T23:54:40.865Z,24.73
2023-01-28T23:57:07.379Z,26.30
2023-01-28T23:59:33.782Z,32.30
